Terminal Aerodrome Forecast
Issued by NWS Newport/Morehead City, NC

Home | Current Version | Previous Version | Text Only | Print | Product List | Glossary Off
Versions: 1 2 3 4 5 6 7 8 9 10 11 12 13 14 15 16 17 18

000
FTUS42 KMHX 261720
TAFEWN
TAF
KEWN 261720Z 2618/2718 17010KT P6SM BKN035 BKN045
     FM270100 18004KT P6SM SCT040
     FM271000 15003KT P6SM BKN040=

USA.gov is the U.S. government's official web portal to all federal, state and local government web resources and services.